sensor_id;sensor_type;location;lat;lon;timestamp;temperature;humidity
9730;DHT22;4904;49.152;11.004;2023-03-15T00:01:35;2.20;99.90
9730;DHT22;4904;49.152;11.004;2023-03-15T00:04:02;2.20;99.90
9730;DHT22;4904;49.152;11.004;2023-03-15T00:06:30;2.20;99.90
9730;DHT22;4904;49.152;11.004;2023-03-15T00:08:58;2.30;99.90
9730;DHT22;4904;49.152;11.004;2023-03-15T00:11:27;2.50;99.90
9730;DHT22;4904;49.152;11.004;2023-03-15T00:13:55;2.50;99.90
9730;DHT22;4904;49.152;11.004;2023-03-15T00:16:24;2.80;99.90
9730;DHT22;4904;49.152;11.004;2023-03-15T00:18:52;2.70;99.90
9730;DHT22;4904;49.152;11.004;2023-03-15T00:21:19;2.80;99.90
9730;DHT22;4904;49.152;11.004;2023-03-15T00:23:46;2.80;99.90
9730;DHT22;4904;49.152;11.004;2023-03-15T00:26:13;3.00;99.90
9730;DHT22;4904;49.152;11.004;2023-03-15T00:28:40;3.10;99.90
9730;DHT22;4904;49.152;11.004;2023-03-15T00:31:12;3.10;99.90
9730;DHT22;4904;49.152;11.004;2023-03-15T00:33:42;2.90;99.90
9730;DHT22;4904;49.152;11.004;2023-03-15T00:36:10;2.80;99.90
9730;DHT22;4904;49.152;11.004;2023-03-15T00:38:38;2.80;99.90
9730;DHT22;4904;49.152;11.004;2023-03-15T00:41:07;2.70;99.90
9730;DHT22;4904;49.152;11.004;2023-03-15T00:43:35;2.70;99.90
9730;DHT22;4904;49.152;11.004;2023-03-15T00:46:02;2.60;99.90
9730;DHT22;4904;49.152;11.004;2023-03-15T00:48:29;2.50;99.90
9730;DHT22;4904;49.152;11.004;2023-03-15T00:51:04;2.60;99.90
9730;DHT22;4904;49.152;11.004;2023-03-15T00:53:32;2.40;99.90
9730;DHT22;4904;49.152;11.004;2023-03-15T00:56:03;2.50;99.90
9730;DHT22;4904;49.152;11.004;2023-03-15T00:58:30;2.50;99.90
9730;DHT22;4904;49.152;11.004;2023-03-15T01:00:57;2.50;99.90
9730;DHT22;4904;49.152;11.004;2023-03-15T01:03:25;2.50;99.90
9730;DHT22;4904;49.152;11.004;2023-03-15T01:05:52;2.40;99.90
9730;DHT22;4904;49.152;11.004;2023-03-15T01:08:20;2.40;99.90
9730;DHT22;4904;49.152;11.004;2023-03-15T01:10:48;2.20;99.90
9730;DHT22;4904;49.152;11.004;2023-03-15T01:13:15;2.30;99.90
9730;DHT22;4904;49.152;11.004;2023-03-15T01:15:45;2.10;99.90
9730;DHT22;4904;49.152;11.004;2023-03-15T01:18:12;2.10;99.90
9730;DHT22;4904;49.152;11.004;2023-03-15T01:20:41;1.90;99.90
9730;DHT22;4904;49.152;11.004;2023-03-15T01:23:09;1.90;99.90
9730;DHT22;4904;49.152;11.004;2023-03-15T01:25:37;2.00;99.90
9730;DHT22;4904;49.152;11.004;2023-03-15T01:28:04;1.70;99.90
9730;DHT22;4904;49.152;11.004;2023-03-15T01:30:31;1.60;99.90
9730;DHT22;4904;49.152;11.004;2023-03-15T01:32:58;1.60;99.90
9730;DHT22;4904;49.152;11.004;2023-03-15T01:35:25;1.40;99.90
9730;DHT22;4904;49.152;11.004;2023-03-15T01:37:52;1.40;99.90
9730;DHT22;4904;49.152;11.004;2023-03-15T01:40:19;1.30;99.90
9730;DHT22;4904;49.152;11.004;2023-03-15T01:43:13;1.30;99.90
9730;DHT22;4904;49.152;11.004;2023-03-15T01:46:01;1.30;99.90
9730;DHT22;4904;49.152;11.004;2023-03-15T01:48:33;1.30;99.90
9730;DHT22;4904;49.152;11.004;2023-03-15T01:51:03;1.30;99.90
9730;DHT22;4904;49.152;11.004;2023-03-15T01:53:32;1.30;99.90
9730;DHT22;4904;49.152;11.004;2023-03-15T01:56:02;1.20;99.90
9730;DHT22;4904;49.152;11.004;2023-03-15T01:58:31;1.20;99.90
9730;DHT22;4904;49.152;11.004;2023-03-15T02:01:00;1.20;99.90
9730;DHT22;4904;49.152;11.004;2023-03-15T02:03:30;1.20;99.90
9730;DHT22;4904;49.152;11.004;2023-03-15T02:06:03;1.30;99.90
9730;DHT22;4904;49.152;11.004;2023-03-15T02:08:33;1.20;99.90
9730;DHT22;4904;49.152;11.004;2023-03-15T02:11:04;1.20;99.90
9730;DHT22;4904;49.152;11.004;2023-03-15T02:13:33;1.20;99.90
9730;DHT22;4904;49.152;11.004;2023-03-15T02:16:02;1.30;99.90
9730;DHT22;4904;49.152;11.004;2023-03-15T02:18:31;1.20;99.90
9730;DHT22;4904;49.152;11.004;2023-03-15T02:21:07;1.30;99.90
9730;DHT22;4904;49.152;11.004;2023-03-15T02:23:38;1.30;99.90
9730;DHT22;4904;49.152;11.004;2023-03-15T02:26:15;1.40;99.90
9730;DHT22;4904;49.152;11.004;2023-03-15T02:28:45;1.40;99.90
9730;DHT22;4904;49.152;11.004;2023-03-15T02:31:12;1.40;99.90
9730;DHT22;4904;49.152;11.004;2023-03-15T02:33:42;1.30;99.90
9730;DHT22;4904;49.152;11.004;2023-03-15T02:36:15;1.30;99.90
9730;DHT22;4904;49.152;11.004;2023-03-15T02:38:43;1.30;99.90
9730;DHT22;4904;49.152;11.004;2023-03-15T02:41:10;1.30;99.90
9730;DHT22;4904;49.152;11.004;2023-03-15T02:43:39;1.40;99.90
9730;DHT22;4904;49.152;11.004;2023-03-15T02:46:08;1.40;99.90
9730;DHT22;4904;49.152;11.004;2023-03-15T02:48:37;1.40;99.90
9730;DHT22;4904;49.152;11.004;2023-03-15T02:51:04;1.40;99.90
9730;DHT22;4904;49.152;11.004;2023-03-15T02:53:32;1.40;99.90
9730;DHT22;4904;49.152;11.004;2023-03-15T02:55:59;1.40;99.90
9730;DHT22;4904;49.152;11.004;2023-03-15T02:58:25;1.50;99.90
9730;DHT22;4904;49.152;11.004;2023-03-15T03:00:53;1.50;99.90
9730;DHT22;4904;49.152;11.004;2023-03-15T03:03:21;1.50;99.90
9730;DHT22;4904;49.152;11.004;2023-03-15T03:05:48;1.40;99.90
9730;DHT22;4904;49.152;11.004;2023-03-15T03:08:15;1.40;99.90
9730;DHT22;4904;49.152;11.004;2023-03-15T03:10:42;1.40;99.90
9730;DHT22;4904;49.152;11.004;2023-03-15T03:13:09;1.50;99.90
9730;DHT22;4904;49.152;11.004;2023-03-15T03:15:36;1.50;99.90
9730;DHT22;4904;49.152;11.004;2023-03-15T03:18:03;1.40;99.90
9730;DHT22;4904;49.152;11.004;2023-03-15T03:20:31;1.40;99.90
9730;DHT22;4904;49.152;11.004;2023-03-15T03:22:58;1.40;99.90
9730;DHT22;4904;49.152;11.004;2023-03-15T03:25:31;1.40;99.90
9730;DHT22;4904;49.152;11.004;2023-03-15T03:27:58;1.40;99.90
9730;DHT22;4904;49.152;11.004;2023-03-15T03:30:28;1.30;99.90
9730;DHT22;4904;49.152;11.004;2023-03-15T03:32:55;1.30;99.90
9730;DHT22;4904;49.152;11.004;2023-03-15T03:35:22;1.40;99.90
9730;DHT22;4904;49.152;11.004;2023-03-15T03:37:51;1.30;99.90
9730;DHT22;4904;49.152;11.004;2023-03-15T03:40:18;1.30;99.90
9730;DHT22;4904;49.152;11.004;2023-03-15T03:42:45;1.30;99.90
9730;DHT22;4904;49.152;11.004;2023-03-15T03:45:12;1.20;99.90
9730;DHT22;4904;49.152;11.004;2023-03-15T03:47:39;1.20;99.90
9730;DHT22;4904;49.152;11.004;2023-03-15T03:50:07;1.20;99.90
9730;DHT22;4904;49.152;11.004;2023-03-15T03:52:34;1.10;99.90
9730;DHT22;4904;49.152;11.004;2023-03-15T03:55:02;1.20;99.90
9730;DHT22;4904;49.152;11.004;2023-03-15T03:57:29;1.00;99.90
9730;DHT22;4904;49.152;11.004;2023-03-15T03:59:56;1.00;99.90
9730;DHT22;4904;49.152;11.004;2023-03-15T04:02:23;1.00;99.90
9730;DHT22;4904;49.152;11.004;2023-03-15T04:04:50;0.90;99.90
9730;DHT22;4904;49.152;11.004;2023-03-15T04:07:17;0.90;99.90
9730;DHT22;4904;49.152;11.004;2023-03-15T04:09:44;0.90;99.90
9730;DHT22;4904;49.152;11.004;2023-03-15T04:12:12;0.90;99.90
9730;DHT22;4904;49.152;11.004;2023-03-15T04:14:39;0.80;99.90
9730;DHT22;4904;49.152;11.004;2023-03-15T04:17:06;0.90;99.90
9730;DHT22;4904;49.152;11.004;2023-03-15T04:19:34;0.90;99.90
9730;DHT22;4904;49.152;11.004;2023-03-15T04:22:01;0.80;99.90
9730;DHT22;4904;49.152;11.004;2023-03-15T04:24:31;0.80;99.90
9730;DHT22;4904;49.152;11.004;2023-03-15T04:26:58;0.80;99.90
9730;DHT22;4904;49.152;11.004;2023-03-15T04:29:27;0.90;99.90
9730;DHT22;4904;49.152;11.004;2023-03-15T04:31:53;0.80;99.90
9730;DHT22;4904;49.152;11.004;2023-03-15T04:34:27;0.70;99.90
9730;DHT22;4904;49.152;11.004;2023-03-15T04:36:54;0.70;99.90
9730;DHT22;4904;49.152;11.004;2023-03-15T04:39:21;0.70;99.90
9730;DHT22;4904;49.152;11.004;2023-03-15T04:41:47;0.70;99.90
9730;DHT22;4904;49.152;11.004;2023-03-15T04:44:15;0.70;99.90
9730;DHT22;4904;49.152;11.004;2023-03-15T04:46:43;0.70;99.90
9730;DHT22;4904;49.152;11.004;2023-03-15T04:49:10;0.70;99.90
9730;DHT22;4904;49.152;11.004;2023-03-15T04:51:37;0.70;99.90
9730;DHT22;4904;49.152;11.004;2023-03-15T04:54:04;0.70;99.90
9730;DHT22;4904;49.152;11.004;2023-03-15T04:56:31;0.60;99.90
9730;DHT22;4904;49.152;11.004;2023-03-15T04:58:58;0.70;99.90
9730;DHT22;4904;49.152;11.004;2023-03-15T05:01:28;0.70;99.90
9730;DHT22;4904;49.152;11.004;2023-03-15T05:03:57;0.70;99.90
9730;DHT22;4904;49.152;11.004;2023-03-15T05:06:24;0.70;99.90
9730;DHT22;4904;49.152;11.004;2023-03-15T05:08:51;0.70;99.90
9730;DHT22;4904;49.152;11.004;2023-03-15T05:11:17;0.70;99.90
9730;DHT22;4904;49.152;11.004;2023-03-15T05:13:44;0.70;99.90
9730;DHT22;4904;49.152;11.004;2023-03-15T05:16:11;0.60;99.90
9730;DHT22;4904;49.152;11.004;2023-03-15T05:18:38;0.70;99.90
9730;DHT22;4904;49.152;11.004;2023-03-15T05:21:06;0.70;99.90
9730;DHT22;4904;49.152;11.004;2023-03-15T05:23:33;0.70;99.90
9730;DHT22;4904;49.152;11.004;2023-03-15T05:26:00;0.80;99.90
9730;DHT22;4904;49.152;11.004;2023-03-15T05:28:28;0.70;99.90
9730;DHT22;4904;49.152;11.004;2023-03-15T05:30:56;0.70;99.90
9730;DHT22;4904;49.152;11.004;2023-03-15T05:33:23;0.70;99.90
9730;DHT22;4904;49.152;11.004;2023-03-15T05:35:50;0.80;99.90
9730;DHT22;4904;49.152;11.004;2023-03-15T05:38:22;0.70;99.90
9730;DHT22;4904;49.152;11.004;2023-03-15T05:40:51;0.70;99.90
9730;DHT22;4904;49.152;11.004;2023-03-15T05:43:18;0.70;99.90
9730;DHT22;4904;49.152;11.004;2023-03-15T05:45:45;0.70;99.90
9730;DHT22;4904;49.152;11.004;2023-03-15T05:48:13;0.60;99.90
9730;DHT22;4904;49.152;11.004;2023-03-15T05:50:40;0.70;99.90
9730;DHT22;4904;49.152;11.004;2023-03-15T05:53:07;0.70;99.90
9730;DHT22;4904;49.152;11.004;2023-03-15T05:55:35;0.80;99.90
9730;DHT22;4904;49.152;11.004;2023-03-15T05:58:03;0.80;99.90
9730;DHT22;4904;49.152;11.004;2023-03-15T06:00:30;0.90;99.90
9730;DHT22;4904;49.152;11.004;2023-03-15T06:02:57;0.90;99.90
9730;DHT22;4904;49.152;11.004;2023-03-15T06:05:24;0.90;99.90
9730;DHT22;4904;49.152;11.004;2023-03-15T06:07:51;0.90;99.90
9730;DHT22;4904;49.152;11.004;2023-03-15T06:10:18;0.90;99.90
9730;DHT22;4904;49.152;11.004;2023-03-15T06:12:46;0.90;99.90
9730;DHT22;4904;49.152;11.004;2023-03-15T06:15:14;0.90;99.90
9730;DHT22;4904;49.152;11.004;2023-03-15T06:17:41;0.90;99.90
9730;DHT22;4904;49.152;11.004;2023-03-15T06:20:10;0.90;99.90
9730;DHT22;4904;49.152;11.004;2023-03-15T06:22:37;0.80;99.90
9730;DHT22;4904;49.152;11.004;2023-03-15T06:25:04;0.80;99.90
9730;DHT22;4904;49.152;11.004;2023-03-15T06:27:31;0.80;99.90
9730;DHT22;4904;49.152;11.004;2023-03-15T06:30:00;0.80;99.90
9730;DHT22;4904;49.152;11.004;2023-03-15T06:32:26;0.90;99.90
9730;DHT22;4904;49.152;11.004;2023-03-15T06:34:53;0.90;99.90
9730;DHT22;4904;49.152;11.004;2023-03-15T06:37:20;0.90;99.90
9730;DHT22;4904;49.152;11.004;2023-03-15T06:39:47;0.90;99.90
9730;DHT22;4904;49.152;11.004;2023-03-15T06:42:16;1.00;99.90
9730;DHT22;4904;49.152;11.004;2023-03-15T06:44:43;1.00;99.90
9730;DHT22;4904;49.152;11.004;2023-03-15T06:47:11;1.00;99.90
9730;DHT22;4904;49.152;11.004;2023-03-15T06:49:38;1.10;99.90
9730;DHT22;4904;49.152;11.004;2023-03-15T06:52:06;1.10;99.90
9730;DHT22;4904;49.152;11.004;2023-03-15T06:54:33;1.10;99.90
9730;DHT22;4904;49.152;11.004;2023-03-15T06:57:00;1.20;99.90
9730;DHT22;4904;49.152;11.004;2023-03-15T06:59:27;1.20;99.90
9730;DHT22;4904;49.152;11.004;2023-03-15T07:01:54;1.20;99.90
9730;DHT22;4904;49.152;11.004;2023-03-15T07:04:22;1.20;99.90
9730;DHT22;4904;49.152;11.004;2023-03-15T07:06:49;1.20;99.90
9730;DHT22;4904;49.152;11.004;2023-03-15T07:09:16;1.30;99.90
9730;DHT22;4904;49.152;11.004;2023-03-15T07:11:43;1.40;99.90
9730;DHT22;4904;49.152;11.004;2023-03-15T07:14:10;1.30;99.90
9730;DHT22;4904;49.152;11.004;2023-03-15T07:16:36;1.30;99.90
9730;DHT22;4904;49.152;11.004;2023-03-15T07:19:03;1.30;99.90
9730;DHT22;4904;49.152;11.004;2023-03-15T07:21:31;1.30;99.90
9730;DHT22;4904;49.152;11.004;2023-03-15T07:23:58;1.40;99.90
9730;DHT22;4904;49.152;11.004;2023-03-15T07:26:25;1.40;99.90
9730;DHT22;4904;49.152;11.004;2023-03-15T07:28:52;1.40;99.90
9730;DHT22;4904;49.152;11.004;2023-03-15T07:31:19;1.40;99.90
9730;DHT22;4904;49.152;11.004;2023-03-15T07:33:46;1.50;99.90
9730;DHT22;4904;49.152;11.004;2023-03-15T07:36:13;1.50;99.90
9730;DHT22;4904;49.152;11.004;2023-03-15T07:38:41;1.50;99.90
9730;DHT22;4904;49.152;11.004;2023-03-15T07:41:08;2.00;99.90
9730;DHT22;4904;49.152;11.004;2023-03-15T07:43:35;1.50;99.90
9730;DHT22;4904;49.152;11.004;2023-03-15T07:46:02;1.50;99.90
9730;DHT22;4904;49.152;11.004;2023-03-15T07:48:29;1.60;99.90
9730;DHT22;4904;49.152;11.004;2023-03-15T07:50:56;1.60;99.90
9730;DHT22;4904;49.152;11.004;2023-03-15T07:53:23;1.70;99.90
9730;DHT22;4904;49.152;11.004;2023-03-15T07:55:51;1.60;99.90
9730;DHT22;4904;49.152;11.004;2023-03-15T07:58:18;1.60;99.90
9730;DHT22;4904;49.152;11.004;2023-03-15T08:00:45;1.70;99.90
9730;DHT22;4904;49.152;11.004;2023-03-15T08:03:12;1.70;99.90
9730;DHT22;4904;49.152;11.004;2023-03-15T08:05:39;1.70;99.90
9730;DHT22;4904;49.152;11.004;2023-03-15T08:08:06;1.70;99.90
9730;DHT22;4904;49.152;11.004;2023-03-15T08:10:33;1.70;99.90
9730;DHT22;4904;49.152;11.004;2023-03-15T08:13:02;1.80;99.90
9730;DHT22;4904;49.152;11.004;2023-03-15T08:15:28;1.90;99.90
9730;DHT22;4904;49.152;11.004;2023-03-15T08:17:55;2.00;99.90
9730;DHT22;4904;49.152;11.004;2023-03-15T08:20:24;1.90;99.90
9730;DHT22;4904;49.152;11.004;2023-03-15T08:22:52;2.00;99.90
9730;DHT22;4904;49.152;11.004;2023-03-15T08:25:21;2.10;99.90
9730;DHT22;4904;49.152;11.004;2023-03-15T08:27:48;2.20;99.90
9730;DHT22;4904;49.152;11.004;2023-03-15T08:30:18;2.20;99.90
9730;DHT22;4904;49.152;11.004;2023-03-15T08:32:47;2.10;99.90
9730;DHT22;4904;49.152;11.004;2023-03-15T08:35:15;2.20;99.90
9730;DHT22;4904;49.152;11.004;2023-03-15T08:37:43;2.20;99.90
9730;DHT22;4904;49.152;11.004;2023-03-15T08:40:14;2.10;99.90
9730;DHT22;4904;49.152;11.004;2023-03-15T08:42:41;2.00;99.90
9730;DHT22;4904;49.152;11.004;2023-03-15T08:45:09;2.00;99.90
9730;DHT22;4904;49.152;11.004;2023-03-15T08:47:37;2.10;99.90
9730;DHT22;4904;49.152;11.004;2023-03-15T08:50:06;2.10;99.90
9730;DHT22;4904;49.152;11.004;2023-03-15T08:52:33;2.20;99.90
9730;DHT22;4904;49.152;11.004;2023-03-15T08:55:00;2.20;99.90
9730;DHT22;4904;49.152;11.004;2023-03-15T08:57:28;2.30;99.90
9730;DHT22;4904;49.152;11.004;2023-03-15T08:59:57;2.40;99.90
9730;DHT22;4904;49.152;11.004;2023-03-15T09:02:24;2.50;99.90
9730;DHT22;4904;49.152;11.004;2023-03-15T09:04:53;2.40;99.90
9730;DHT22;4904;49.152;11.004;2023-03-15T09:07:20;2.40;99.90
9730;DHT22;4904;49.152;11.004;2023-03-15T09:09:47;2.50;99.90
9730;DHT22;4904;49.152;11.004;2023-03-15T09:12:14;2.60;99.90
9730;DHT22;4904;49.152;11.004;2023-03-15T09:14:41;2.60;99.90
9730;DHT22;4904;49.152;11.004;2023-03-15T09:17:09;2.60;99.90
9730;DHT22;4904;49.152;11.004;2023-03-15T09:19:36;2.70;99.90
9730;DHT22;4904;49.152;11.004;2023-03-15T09:22:05;2.70;99.90
9730;DHT22;4904;49.152;11.004;2023-03-15T09:24:32;2.80;99.90
9730;DHT22;4904;49.152;11.004;2023-03-15T09:26:59;3.00;99.90
9730;DHT22;4904;49.152;11.004;2023-03-15T09:29:26;3.20;99.90
9730;DHT22;4904;49.152;11.004;2023-03-15T09:31:53;3.10;99.90
9730;DHT22;4904;49.152;11.004;2023-03-15T09:34:21;3.00;99.90
9730;DHT22;4904;49.152;11.004;2023-03-15T09:36:48;3.10;99.90
9730;DHT22;4904;49.152;11.004;2023-03-15T09:39:19;3.10;99.90
9730;DHT22;4904;49.152;11.004;2023-03-15T09:41:48;3.20;99.90
9730;DHT22;4904;49.152;11.004;2023-03-15T09:44:30;3.30;99.90
9730;DHT22;4904;49.152;11.004;2023-03-15T09:47:07;3.40;99.90
9730;DHT22;4904;49.152;11.004;2023-03-15T09:49:40;3.20;99.90
9730;DHT22;4904;49.152;11.004;2023-03-15T09:52:23;3.20;99.90
9730;DHT22;4904;49.152;11.004;2023-03-15T09:54:56;3.50;99.90
9730;DHT22;4904;49.152;11.004;2023-03-15T09:57:29;3.60;99.90
9730;DHT22;4904;49.152;11.004;2023-03-15T09:59:58;3.80;99.90
9730;DHT22;4904;49.152;11.004;2023-03-15T10:02:28;3.70;99.90
9730;DHT22;4904;49.152;11.004;2023-03-15T10:04:57;3.60;99.90
9730;DHT22;4904;49.152;11.004;2023-03-15T10:07:27;3.70;99.90
9730;DHT22;4904;49.152;11.004;2023-03-15T10:09:55;3.70;99.90
9730;DHT22;4904;49.152;11.004;2023-03-15T10:12:28;3.80;99.90
9730;DHT22;4904;49.152;11.004;2023-03-15T10:18:08;3.50;99.90
9730;DHT22;4904;49.152;11.004;2023-03-15T10:20:40;3.50;99.90
9730;DHT22;4904;49.152;11.004;2023-03-15T10:23:14;3.60;99.90
9730;DHT22;4904;49.152;11.004;2023-03-15T10:25:45;3.70;99.90
9730;DHT22;4904;49.152;11.004;2023-03-15T10:28:13;3.80;99.90
9730;DHT22;4904;49.152;11.004;2023-03-15T10:30:47;4.00;99.90
9730;DHT22;4904;49.152;11.004;2023-03-15T10:33:17;4.10;99.90
9730;DHT22;4904;49.152;11.004;2023-03-15T10:35:47;4.10;99.90
9730;DHT22;4904;49.152;11.004;2023-03-15T10:38:14;4.10;99.90
9730;DHT22;4904;49.152;11.004;2023-03-15T10:40:45;4.20;99.90
9730;DHT22;4904;49.152;11.004;2023-03-15T10:43:17;4.30;99.90
9730;DHT22;4904;49.152;11.004;2023-03-15T10:45:47;4.20;99.90
9730;DHT22;4904;49.152;11.004;2023-03-15T10:48:23;4.10;99.90
9730;DHT22;4904;49.152;11.004;2023-03-15T10:50:50;4.20;99.90
9730;DHT22;4904;49.152;11.004;2023-03-15T10:53:18;4.30;99.90
9730;DHT22;4904;49.152;11.004;2023-03-15T10:55:48;4.40;99.90
9730;DHT22;4904;49.152;11.004;2023-03-15T10:58:26;4.40;99.90
9730;DHT22;4904;49.152;11.004;2023-03-15T11:00:59;4.10;99.90
9730;DHT22;4904;49.152;11.004;2023-03-15T11:03:27;4.10;99.90
9730;DHT22;4904;49.152;11.004;2023-03-15T11:05:56;4.10;99.90
9730;DHT22;4904;49.152;11.004;2023-03-15T11:08:34;4.10;99.90
9730;DHT22;4904;49.152;11.004;2023-03-15T11:11:03;4.10;99.90
9730;DHT22;4904;49.152;11.004;2023-03-15T11:13:32;3.70;99.90
9730;DHT22;4904;49.152;11.004;2023-03-15T11:16:02;3.60;99.90
9730;DHT22;4904;49.152;11.004;2023-03-15T11:18:33;3.60;99.90
9730;DHT22;4904;49.152;11.004;2023-03-15T11:21:03;3.70;99.90
9730;DHT22;4904;49.152;11.004;2023-03-15T11:23:35;3.50;99.90
9730;DHT22;4904;49.152;11.004;2023-03-15T11:26:04;3.40;99.90
9730;DHT22;4904;49.152;11.004;2023-03-15T11:28:34;3.40;99.90
9730;DHT22;4904;49.152;11.004;2023-03-15T11:31:03;3.40;99.90
9730;DHT22;4904;49.152;11.004;2023-03-15T11:33:40;3.20;99.90
9730;DHT22;4904;49.152;11.004;2023-03-15T11:36:13;3.20;99.90
9730;DHT22;4904;49.152;11.004;2023-03-15T11:38:43;3.30;99.90
9730;DHT22;4904;49.152;11.004;2023-03-15T11:41:23;3.20;99.90
9730;DHT22;4904;49.152;11.004;2023-03-15T11:43:58;3.20;99.90
9730;DHT22;4904;49.152;11.004;2023-03-15T11:46:32;3.30;99.90
9730;DHT22;4904;49.152;11.004;2023-03-15T11:49:11;3.30;99.90
9730;DHT22;4904;49.152;11.004;2023-03-15T11:51:39;3.30;99.90
9730;DHT22;4904;49.152;11.004;2023-03-15T11:54:11;3.20;99.90
9730;DHT22;4904;49.152;11.004;2023-03-15T11:56:50;3.30;99.90
9730;DHT22;4904;49.152;11.004;2023-03-15T11:59:20;3.30;99.90
9730;DHT22;4904;49.152;11.004;2023-03-15T12:01:54;3.40;99.90
9730;DHT22;4904;49.152;11.004;2023-03-15T12:04:39;3.40;99.90
9730;DHT22;4904;49.152;11.004;2023-03-15T12:07:36;3.30;99.90
9730;DHT22;4904;49.152;11.004;2023-03-15T12:13:21;3.10;99.90
9730;DHT22;4904;49.152;11.004;2023-03-15T12:15:49;3.10;99.90
9730;DHT22;4904;49.152;11.004;2023-03-15T12:18:24;3.00;99.90
9730;DHT22;4904;49.152;11.004;2023-03-15T12:21:07;3.00;99.90
9730;DHT22;4904;49.152;11.004;2023-03-15T12:23:39;3.00;99.90
9730;DHT22;4904;49.152;11.004;2023-03-15T12:26:12;2.90;99.90
9730;DHT22;4904;49.152;11.004;2023-03-15T12:28:50;2.70;99.90
9730;DHT22;4904;49.152;11.004;2023-03-15T12:31:18;2.40;99.90
9730;DHT22;4904;49.152;11.004;2023-03-15T12:33:47;2.30;99.90
9730;DHT22;4904;49.152;11.004;2023-03-15T12:36:25;2.20;99.90
9730;DHT22;4904;49.152;11.004;2023-03-15T12:39:00;2.40;99.90
9730;DHT22;4904;49.152;11.004;2023-03-15T12:41:37;2.30;99.90
9730;DHT22;4904;49.152;11.004;2023-03-15T12:44:22;2.40;99.90
9730;DHT22;4904;49.152;11.004;2023-03-15T12:46:54;2.50;99.90
9730;DHT22;4904;49.152;11.004;2023-03-15T12:49:36;2.50;99.90
9730;DHT22;4904;49.152;11.004;2023-03-15T12:52:08;2.50;99.90
9730;DHT22;4904;49.152;11.004;2023-03-15T12:54:43;2.40;99.90
9730;DHT22;4904;49.152;11.004;2023-03-15T12:57:12;2.50;99.90
9730;DHT22;4904;49.152;11.004;2023-03-15T12:59:48;2.60;99.90
9730;DHT22;4904;49.152;11.004;2023-03-15T13:02:27;2.70;99.90
9730;DHT22;4904;49.152;11.004;2023-03-15T13:05:15;2.70;99.90
9730;DHT22;4904;49.152;11.004;2023-03-15T13:07:51;2.70;99.90
9730;DHT22;4904;49.152;11.004;2023-03-15T13:10:43;2.70;99.90
9730;DHT22;4904;49.152;11.004;2023-03-15T13:13:44;2.80;99.90
9730;DHT22;4904;49.152;11.004;2023-03-15T13:16:23;2.70;99.90
9730;DHT22;4904;49.152;11.004;2023-03-15T13:18:58;2.70;99.90
9730;DHT22;4904;49.152;11.004;2023-03-15T13:21:33;2.80;99.90
9730;DHT22;4904;49.152;11.004;2023-03-15T13:24:02;2.80;99.90
9730;DHT22;4904;49.152;11.004;2023-03-15T13:26:48;2.70;99.90
9730;DHT22;4904;49.152;11.004;2023-03-15T13:29:20;2.80;99.90
9730;DHT22;4904;49.152;11.004;2023-03-15T13:31:59;2.70;99.90
9730;DHT22;4904;49.152;11.004;2023-03-15T13:34:28;2.50;99.90
9730;DHT22;4904;49.152;11.004;2023-03-15T13:36:58;2.50;99.90
9730;DHT22;4904;49.152;11.004;2023-03-15T13:39:28;2.50;99.90
9730;DHT22;4904;49.152;11.004;2023-03-15T13:41:57;2.60;99.90
9730;DHT22;4904;49.152;11.004;2023-03-15T13:44:24;2.70;99.90
9730;DHT22;4904;49.152;11.004;2023-03-15T13:46:54;2.60;99.90
9730;DHT22;4904;49.152;11.004;2023-03-15T13:49:21;2.70;99.90
9730;DHT22;4904;49.152;11.004;2023-03-15T13:51:50;2.90;99.90
9730;DHT22;4904;49.152;11.004;2023-03-15T13:54:20;2.90;99.90
9730;DHT22;4904;49.152;11.004;2023-03-15T13:56:56;3.00;99.90
9730;DHT22;4904;49.152;11.004;2023-03-15T13:59:28;3.00;99.90
9730;DHT22;4904;49.152;11.004;2023-03-15T14:01:59;3.00;99.90
9730;DHT22;4904;49.152;11.004;2023-03-15T14:04:28;3.00;99.90
9730;DHT22;4904;49.152;11.004;2023-03-15T14:07:18;2.90;99.90
9730;DHT22;4904;49.152;11.004;2023-03-15T14:09:48;2.90;99.90
9730;DHT22;4904;49.152;11.004;2023-03-15T14:12:32;2.90;99.90
9730;DHT22;4904;49.152;11.004;2023-03-15T14:14:59;3.00;99.90
9730;DHT22;4904;49.152;11.004;2023-03-15T14:17:29;3.10;99.90
9730;DHT22;4904;49.152;11.004;2023-03-15T14:20:06;3.30;99.90
9730;DHT22;4904;49.152;11.004;2023-03-15T14:22:34;3.40;99.90
9730;DHT22;4904;49.152;11.004;2023-03-15T14:25:02;3.50;99.90
9730;DHT22;4904;49.152;11.004;2023-03-15T14:27:29;3.00;99.90
9730;DHT22;4904;49.152;11.004;2023-03-15T14:29:59;3.00;99.90
9730;DHT22;4904;49.152;11.004;2023-03-15T14:32:30;3.00;99.90
9730;DHT22;4904;49.152;11.004;2023-03-15T14:35:00;2.90;99.90
9730;DHT22;4904;49.152;11.004;2023-03-15T14:37:31;2.80;99.90
9730;DHT22;4904;49.152;11.004;2023-03-15T14:40:11;2.80;99.90
9730;DHT22;4904;49.152;11.004;2023-03-15T14:42:40;2.90;99.90
9730;DHT22;4904;49.152;11.004;2023-03-15T14:45:08;2.90;99.90
9730;DHT22;4904;49.152;11.004;2023-03-15T14:47:41;3.00;99.90
9730;DHT22;4904;49.152;11.004;2023-03-15T14:50:12;3.00;99.90
9730;DHT22;4904;49.152;11.004;2023-03-15T14:52:40;3.10;99.90
9730;DHT22;4904;49.152;11.004;2023-03-15T14:55:11;3.10;99.90
9730;DHT22;4904;49.152;11.004;2023-03-15T14:57:38;3.20;99.90
9730;DHT22;4904;49.152;11.004;2023-03-15T15:00:06;3.20;99.90
9730;DHT22;4904;49.152;11.004;2023-03-15T15:02:37;3.20;99.90
9730;DHT22;4904;49.152;11.004;2023-03-15T15:05:15;3.20;99.90
9730;DHT22;4904;49.152;11.004;2023-03-15T15:07:43;3.10;99.90
9730;DHT22;4904;49.152;11.004;2023-03-15T15:10:10;3.10;99.90
9730;DHT22;4904;49.152;11.004;2023-03-15T15:12:37;3.00;99.90
9730;DHT22;4904;49.152;11.004;2023-03-15T15:15:13;3.10;99.90
9730;DHT22;4904;49.152;11.004;2023-03-15T15:17:42;3.10;99.90
9730;DHT22;4904;49.152;11.004;2023-03-15T15:20:10;3.20;99.90
9730;DHT22;4904;49.152;11.004;2023-03-15T15:22:37;3.30;99.90
9730;DHT22;4904;49.152;11.004;2023-03-15T15:25:12;3.30;99.90
9730;DHT22;4904;49.152;11.004;2023-03-15T15:27:39;3.20;99.90
9730;DHT22;4904;49.152;11.004;2023-03-15T15:30:10;3.30;99.90
9730;DHT22;4904;49.152;11.004;2023-03-15T15:32:37;3.20;99.90
9730;DHT22;4904;49.152;11.004;2023-03-15T15:35:07;3.30;99.90
9730;DHT22;4904;49.152;11.004;2023-03-15T15:37:34;3.40;99.90
9730;DHT22;4904;49.152;11.004;2023-03-15T15:40:01;3.40;99.90
9730;DHT22;4904;49.152;11.004;2023-03-15T15:42:29;3.30;99.90
9730;DHT22;4904;49.152;11.004;2023-03-15T15:44:56;3.40;99.90
9730;DHT22;4904;49.152;11.004;2023-03-15T15:47:23;3.30;99.90
9730;DHT22;4904;49.152;11.004;2023-03-15T15:49:50;3.20;99.90
9730;DHT22;4904;49.152;11.004;2023-03-15T15:52:18;3.20;99.90
9730;DHT22;4904;49.152;11.004;2023-03-15T15:54:45;3.30;99.90
9730;DHT22;4904;49.152;11.004;2023-03-15T15:57:19;3.30;99.90
9730;DHT22;4904;49.152;11.004;2023-03-15T15:59:47;3.30;99.90
9730;DHT22;4904;49.152;11.004;2023-03-15T16:02:15;3.30;99.90
9730;DHT22;4904;49.152;11.004;2023-03-15T16:04:46;3.30;99.90
9730;DHT22;4904;49.152;11.004;2023-03-15T16:07:13;3.30;99.90
9730;DHT22;4904;49.152;11.004;2023-03-15T16:09:43;3.30;99.90
9730;DHT22;4904;49.152;11.004;2023-03-15T16:12:12;3.30;99.90
9730;DHT22;4904;49.152;11.004;2023-03-15T16:14:39;3.30;99.90
9730;DHT22;4904;49.152;11.004;2023-03-15T16:17:09;3.20;99.90
9730;DHT22;4904;49.152;11.004;2023-03-15T16:19:36;3.20;99.90
9730;DHT22;4904;49.152;11.004;2023-03-15T16:22:03;3.40;99.90
9730;DHT22;4904;49.152;11.004;2023-03-15T16:24:32;3.40;99.90